createdAt,value
2018-09-09T00:01:15.488Z,27.83
2018-09-09T00:03:44.704Z,33.70
2018-09-09T00:06:13.633Z,27.57
2018-09-09T00:08:42.794Z,26.27
2018-09-09T00:11:11.714Z,27.80
2018-09-09T00:13:40.672Z,32.10
2018-09-09T00:16:10.008Z,32.40
2018-09-09T00:18:38.881Z,33.83
2018-09-09T00:21:07.849Z,30.90
2018-09-09T00:23:36.815Z,28.63
2018-09-09T00:26:05.757Z,33.30
2018-09-09T00:28:35.040Z,31.63
2018-09-09T00:31:04.345Z,33.33
2018-09-09T00:33:33.277Z,32.53
2018-09-09T00:36:02.497Z,33.37
2018-09-09T00:38:31.344Z,36.63
2018-09-09T00:41:00.240Z,32.73
2018-09-09T00:43:29.501Z,31.60
2018-09-09T00:45:58.547Z,28.97
2018-09-09T00:48:27.747Z,34.97
2018-09-09T00:51:01.763Z,32.60
2018-09-09T00:53:35.692Z,34.00
2018-09-09T00:56:04.904Z,30.57
2018-09-09T00:58:33.905Z,38.27
2018-09-09T01:01:07.871Z,43.67
2018-09-09T01:03:37.076Z,29.33
2018-09-09T01:06:06.620Z,34.80
2018-09-09T01:08:35.512Z,32.47
2018-09-09T01:11:04.398Z,28.83
2018-09-09T01:13:33.329Z,34.07
2018-09-09T01:16:02.316Z,25.27
2018-09-09T01:18:31.448Z,31.40
2018-09-09T01:21:00.379Z,35.77
2018-09-09T01:23:29.292Z,31.13
2018-09-09T01:25:58.632Z,36.63
2018-09-09T01:28:27.581Z,33.83
2018-09-09T01:30:56.776Z,35.20
2018-09-09T01:33:26.163Z,38.80
2018-09-09T01:35:55.082Z,32.30
2018-09-09T01:38:24.061Z,34.37
2018-09-09T01:40:53.027Z,37.13
2018-09-09T01:43:21.964Z,29.40
2018-09-09T01:45:51.345Z,32.67
2018-09-09T01:48:20.613Z,32.33
2018-09-09T01:50:49.517Z,39.63
2018-09-09T01:53:18.439Z,40.63
2018-09-09T01:55:47.427Z,42.20
2018-09-09T01:58:16.551Z,40.73
2018-09-09T02:00:45.480Z,41.10
2018-09-09T02:03:14.761Z,41.57
2018-09-09T02:05:43.801Z,40.17
2018-09-09T02:08:12.876Z,37.03
2018-09-09T02:10:42.099Z,42.50
2018-09-09T02:13:11.033Z,33.60
2018-09-09T02:15:39.900Z,32.03
2018-09-09T02:18:08.868Z,37.90
2018-09-09T02:20:38.132Z,31.37
2018-09-09T02:23:07.529Z,41.00
2018-09-09T02:25:36.836Z,36.47
2018-09-09T02:28:05.760Z,37.87
2018-09-09T02:30:35.107Z,36.30
2018-09-09T02:33:04.032Z,40.47
2018-09-09T02:35:32.882Z,38.70
2018-09-09T02:38:02.660Z,42.63
2018-09-09T02:40:31.520Z,38.10
2018-09-09T02:43:00.595Z,36.30
2018-09-09T02:45:29.892Z,35.83
2018-09-09T02:47:59.015Z,36.80
2018-09-09T02:50:28.008Z,33.80
2018-09-09T02:52:56.883Z,34.23
2018-09-09T02:55:25.828Z,42.70
2018-09-09T02:57:54.670Z,35.07
2018-09-09T03:00:23.556Z,36.43
2018-09-09T03:02:52.411Z,35.80
2018-09-09T03:05:21.328Z,34.23
2018-09-09T03:07:50.316Z,32.97
2018-09-09T03:10:19.215Z,31.37
2018-09-09T03:12:48.303Z,41.17
2018-09-09T03:15:17.200Z,38.03
2018-09-09T03:17:46.215Z,41.93
2018-09-09T03:20:15.144Z,35.50
2018-09-09T03:22:44.105Z,31.83
2018-09-09T03:25:12.983Z,35.73
2018-09-09T03:27:41.957Z,36.77
2018-09-09T03:30:10.935Z,35.03
2018-09-09T03:32:40.161Z,31.03
2018-09-09T03:35:09.091Z,34.53
2018-09-09T03:37:38.017Z,36.80
2018-09-09T03:40:06.932Z,37.67
2018-09-09T03:42:35.885Z,37.30
2018-09-09T03:45:05.288Z,35.83
2018-09-09T03:47:34.648Z,35.60
2018-09-09T03:50:03.462Z,47.37
2018-09-09T03:52:32.445Z,42.07
2018-09-09T03:55:01.411Z,40.20
2018-09-09T03:57:30.305Z,33.87
2018-09-09T03:59:59.139Z,29.27
2018-09-09T04:02:28.163Z,36.73
2018-09-09T04:04:57.149Z,33.70
2018-09-09T04:07:26.017Z,34.37
2018-09-09T04:09:54.939Z,39.67
2018-09-09T04:12:23.916Z,35.77
2018-09-09T04:14:52.899Z,38.97
2018-09-09T04:17:21.832Z,35.80
2018-09-09T04:19:50.800Z,34.87
2018-09-09T04:22:19.873Z,34.07
2018-09-09T04:24:48.699Z,34.03
2018-09-09T04:27:18.174Z,43.27
2018-09-09T04:29:47.052Z,38.80
2018-09-09T04:32:16.002Z,32.27
2018-09-09T04:34:45.364Z,27.03
2018-09-09T04:37:14.325Z,33.03
2018-09-09T04:39:43.172Z,30.33
2018-09-09T04:42:12.108Z,36.07
2018-09-09T04:44:41.057Z,37.20
2018-09-09T04:47:09.989Z,38.70
2018-09-09T04:49:38.933Z,36.83
2018-09-09T04:52:07.773Z,37.53
2018-09-09T04:54:36.702Z,45.43
2018-09-09T04:57:05.568Z,30.60
2018-09-09T04:59:34.625Z,34.77
2018-09-09T05:02:03.640Z,40.17
2018-09-09T05:04:32.556Z,31.63
2018-09-09T05:07:01.695Z,36.07
2018-09-09T05:09:30.917Z,39.53
2018-09-09T05:11:59.795Z,36.17
2018-09-09T05:14:28.643Z,29.27
2018-09-09T05:16:57.443Z,28.43
2018-09-09T05:19:26.299Z,31.40
2018-09-09T05:21:55.318Z,38.70
2018-09-09T05:24:24.268Z,24.90
2018-09-09T05:26:53.217Z,36.77
2018-09-09T05:29:22.232Z,35.30
2018-09-09T05:31:51.208Z,27.60
2018-09-09T05:34:20.016Z,34.40
2018-09-09T05:36:49.268Z,26.73
2018-09-09T05:39:18.247Z,29.23
2018-09-09T05:41:47.369Z,29.37
2018-09-09T05:44:16.269Z,27.43
2018-09-09T05:46:45.224Z,90.60
2018-09-09T05:49:14.471Z,29.13
2018-09-09T05:51:43.320Z,27.07
2018-09-09T05:54:12.436Z,29.87
2018-09-09T05:56:41.868Z,35.03
2018-09-09T05:59:11.083Z,32.23
2018-09-09T06:01:39.947Z,35.73
2018-09-09T06:04:08.864Z,33.00
2018-09-09T06:06:37.848Z,31.50
2018-09-09T06:09:08.625Z,27.43
2018-09-09T06:11:37.551Z,31.43
2018-09-09T06:14:06.557Z,32.17
2018-09-09T06:16:36.179Z,33.90
2018-09-09T06:19:05.436Z,33.97
2018-09-09T06:21:34.592Z,29.70
2018-09-09T06:24:03.612Z,27.00
2018-09-09T06:26:32.667Z,26.23
2018-09-09T06:29:01.629Z,25.40
2018-09-09T06:31:30.523Z,26.80
2018-09-09T06:33:59.462Z,22.57
2018-09-09T06:36:28.435Z,26.03
2018-09-09T06:38:57.379Z,23.00
2018-09-09T06:41:26.313Z,25.17
2018-09-09T06:43:55.214Z,22.47
2018-09-09T06:46:24.171Z,25.27
2018-09-09T06:48:53.208Z,25.93
2018-09-09T06:51:22.192Z,23.00
2018-09-09T06:53:51.444Z,22.00
2018-09-09T06:56:20.453Z,22.53
2018-09-09T06:58:49.474Z,24.17
2018-09-09T07:01:18.320Z,22.60
2018-09-09T07:03:47.796Z,19.10
2018-09-09T07:06:16.989Z,22.93
2018-09-09T07:08:45.900Z,21.63
2018-09-09T07:11:15.387Z,18.80
2018-09-09T07:13:44.307Z,21.07
2018-09-09T07:16:13.492Z,20.90
2018-09-09T07:18:42.428Z,22.63
2018-09-09T07:21:11.336Z,20.57
2018-09-09T07:23:40.205Z,21.07
2018-09-09T07:26:09.504Z,18.37
2018-09-09T07:28:38.463Z,22.43
2018-09-09T07:31:07.412Z,23.07
2018-09-09T07:33:36.316Z,20.47
2018-09-09T07:36:05.175Z,22.37
2018-09-09T07:38:34.117Z,18.73
2018-09-09T07:41:03.247Z,21.93
2018-09-09T07:43:32.215Z,19.53
2018-09-09T07:46:01.145Z,17.57
2018-09-09T07:48:30.190Z,15.63
2018-09-09T07:50:59.461Z,19.93
2018-09-09T07:53:28.655Z,17.20
2018-09-09T07:55:57.799Z,22.77
2018-09-09T07:58:26.662Z,18.93
2018-09-09T08:00:55.800Z,18.63
2018-09-09T08:03:24.740Z,17.20
2018-09-09T08:05:53.672Z,27.27
2018-09-09T08:08:22.964Z,19.43
2018-09-09T08:10:51.896Z,28.13
2018-09-09T08:13:20.808Z,20.80
2018-09-09T08:15:49.717Z,20.17
2018-09-09T08:18:19.087Z,21.00
2018-09-09T08:20:48.266Z,18.07
2018-09-09T08:23:17.470Z,16.47
2018-09-09T08:25:46.268Z,19.73
2018-09-09T08:28:15.203Z,16.63
2018-09-09T08:30:44.085Z,17.87
2018-09-09T08:33:13.062Z,18.23
2018-09-09T08:35:42.360Z,20.63
2018-09-09T08:38:11.204Z,17.97
2018-09-09T08:40:40.146Z,18.37
2018-09-09T08:43:08.997Z,18.20
2018-09-09T08:45:37.912Z,19.30
2018-09-09T08:48:06.928Z,17.23
2018-09-09T08:50:35.827Z,18.27
2018-09-09T08:53:04.811Z,20.70
2018-09-09T08:55:33.940Z,15.97
2018-09-09T08:58:03.245Z,19.47
2018-09-09T09:00:32.701Z,20.20
2018-09-09T09:03:01.595Z,20.27
2018-09-09T09:05:30.473Z,18.70
2018-09-09T09:07:59.807Z,17.97
2018-09-09T09:10:28.773Z,16.20
2018-09-09T09:12:57.686Z,16.50
2018-09-09T09:15:26.701Z,19.97
2018-09-09T09:17:55.655Z,18.97
2018-09-09T09:20:24.561Z,19.17
2018-09-09T09:22:53.945Z,15.73
2018-09-09T09:25:23.090Z,16.40
2018-09-09T09:27:52.073Z,18.83
2018-09-09T09:30:21.008Z,13.33
2018-09-09T09:32:49.848Z,14.63
2018-09-09T09:35:19.068Z,13.73
2018-09-09T09:37:48.060Z,16.60
2018-09-09T09:40:17.049Z,15.10
2018-09-09T09:42:45.852Z,17.50
2018-09-09T09:45:14.701Z,13.40
2018-09-09T09:47:43.588Z,14.37
2018-09-09T09:50:12.522Z,14.20
2018-09-09T09:52:41.415Z,16.80
2018-09-09T09:55:10.344Z,19.43
2018-09-09T09:57:39.385Z,14.57
2018-09-09T10:00:11.217Z,16.50
2018-09-09T10:02:40.268Z,15.47
2018-09-09T10:05:09.616Z,17.63
2018-09-09T10:07:38.740Z,19.63
2018-09-09T10:10:07.720Z,17.10
2018-09-09T10:12:36.976Z,18.33
2018-09-09T10:15:05.907Z,18.07
2018-09-09T10:17:34.877Z,19.83
2018-09-09T10:20:04.177Z,18.33
2018-09-09T10:22:33.202Z,21.43
2018-09-09T10:25:02.289Z,17.97
2018-09-09T10:27:31.301Z,18.50
2018-09-09T10:30:00.267Z,17.80
2018-09-09T10:32:29.800Z,16.63
2018-09-09T10:34:58.808Z,21.30
2018-09-09T10:37:28.019Z,18.43
2018-09-09T10:39:57.294Z,15.07
2018-09-09T10:42:26.313Z,18.23
2018-09-09T10:44:55.205Z,19.93
2018-09-09T10:47:24.068Z,17.40
2018-09-09T10:49:53.239Z,15.37
2018-09-09T10:52:22.361Z,18.57
2018-09-09T10:54:51.541Z,16.87
2018-09-09T10:57:20.533Z,17.30
2018-09-09T10:59:49.736Z,15.20
2018-09-09T11:02:18.929Z,21.47
2018-09-09T11:04:48.108Z,15.40
2018-09-09T11:07:17.093Z,17.83
2018-09-09T11:09:46.100Z,17.37
2018-09-09T11:12:15.012Z,17.17
2018-09-09T11:14:43.928Z,15.53
2018-09-09T11:17:12.825Z,19.10
2018-09-09T11:19:41.888Z,16.10
2018-09-09T11:22:10.799Z,16.17
2018-09-09T11:24:40.452Z,16.93
2018-09-09T11:27:09.275Z,20.57
2018-09-09T11:29:38.412Z,20.80
2018-09-09T11:32:07.622Z,16.20
2018-09-09T11:34:37.043Z,16.10
2018-09-09T11:37:06.420Z,18.07
2018-09-09T11:39:35.580Z,18.10
2018-09-09T11:42:04.512Z,14.10
2018-09-09T11:44:33.588Z,16.60
2018-09-09T11:47:02.613Z,16.57
2018-09-09T11:49:31.538Z,16.97
2018-09-09T11:52:00.665Z,17.57
2018-09-09T11:54:29.544Z,18.17
2018-09-09T11:56:58.385Z,16.33
2018-09-09T11:59:27.265Z,18.60
2018-09-09T12:01:56.544Z,18.63
2018-09-09T12:04:25.448Z,25.73
2018-09-09T12:06:54.376Z,18.60
2018-09-09T12:09:23.273Z,16.03
2018-09-09T12:11:52.287Z,19.03
2018-09-09T12:14:21.535Z,20.20
2018-09-09T12:16:50.827Z,20.57
2018-09-09T12:19:19.839Z,19.43
2018-09-09T12:21:48.781Z,17.47
2018-09-09T12:24:17.972Z,20.47
2018-09-09T12:26:47.235Z,17.13
2018-09-09T12:29:16.119Z,17.80
2018-09-09T12:31:45.229Z,18.23
2018-09-09T12:34:14.207Z,14.30
2018-09-09T12:36:43.040Z,13.03
2018-09-09T12:39:11.983Z,14.87
2018-09-09T12:41:40.944Z,13.63
2018-09-09T12:44:15.045Z,18.47
2018-09-09T12:46:48.974Z,15.87
2018-09-09T12:49:17.775Z,13.77
2018-09-09T12:51:46.701Z,16.20
2018-09-09T12:54:15.948Z,13.30
2018-09-09T12:56:45.156Z,17.50
2018-09-09T12:59:14.633Z,16.37
2018-09-09T13:01:43.881Z,13.60
2018-09-09T13:04:12.841Z,17.23
2018-09-09T13:06:41.810Z,12.37
2018-09-09T13:09:10.968Z,16.77
2018-09-09T13:11:40.224Z,14.97
2018-09-09T13:14:09.056Z,17.60
2018-09-09T13:16:37.979Z,15.37
2018-09-09T13:19:07.063Z,16.70
2018-09-09T13:21:35.932Z,14.27
2018-09-09T13:24:04.763Z,14.33
2018-09-09T13:26:33.907Z,16.03
2018-09-09T13:29:03.160Z,14.23
2018-09-09T13:31:32.599Z,15.63
2018-09-09T13:34:01.521Z,16.00
2018-09-09T13:36:30.316Z,14.93
2018-09-09T13:38:59.228Z,15.53
2018-09-09T13:41:28.167Z,14.60
2018-09-09T13:43:57.120Z,14.47
2018-09-09T13:46:26.085Z,13.67
2018-09-09T13:48:55.027Z,18.10
2018-09-09T13:51:23.835Z,11.87
2018-09-09T13:53:52.784Z,18.30
2018-09-09T13:56:21.685Z,16.83
2018-09-09T13:58:50.600Z,14.27
2018-09-09T14:01:19.519Z,14.33
2018-09-09T14:03:48.475Z,14.80
2018-09-09T14:06:17.705Z,17.03
2018-09-09T14:08:47.177Z,14.53
2018-09-09T14:11:16.283Z,15.23
2018-09-09T14:13:45.493Z,16.43
2018-09-09T14:16:14.416Z,13.10
2018-09-09T14:18:43.320Z,15.50
2018-09-09T14:21:12.215Z,15.20
2018-09-09T14:23:41.057Z,16.70
2018-09-09T14:26:09.976Z,12.67
2018-09-09T14:28:38.864Z,14.03
2018-09-09T14:31:07.663Z,18.20
2018-09-09T14:33:36.708Z,17.17
2018-09-09T14:36:05.627Z,12.67
2018-09-09T14:38:34.538Z,14.73
2018-09-09T14:41:03.508Z,16.23
2018-09-09T14:43:32.485Z,16.47
2018-09-09T14:46:01.975Z,15.20
2018-09-09T14:48:30.950Z,16.33
2018-09-09T14:51:00.077Z,13.03
2018-09-09T14:53:28.920Z,14.30
2018-09-09T14:55:57.828Z,13.33
2018-09-09T14:58:26.709Z,14.10
2018-09-09T15:00:55.996Z,13.77
2018-09-09T15:03:25.177Z,13.60
2018-09-09T15:05:54.064Z,13.27
2018-09-09T15:08:23.024Z,11.67
2018-09-09T15:10:51.940Z,19.07
2018-09-09T15:13:20.880Z,11.03
2018-09-09T15:15:50.207Z,14.23
2018-09-09T15:18:18.997Z,14.30
2018-09-09T15:20:47.928Z,13.13
2018-09-09T15:23:16.890Z,17.20
2018-09-09T15:25:45.740Z,13.23
2018-09-09T15:28:14.841Z,15.30
2018-09-09T15:30:43.688Z,15.53
2018-09-09T15:33:12.673Z,21.57
2018-09-09T15:35:41.615Z,13.17
2018-09-09T15:38:10.784Z,16.77
2018-09-09T15:40:39.930Z,14.20
2018-09-09T15:43:08.904Z,12.87
2018-09-09T15:45:37.805Z,15.83
2018-09-09T15:48:06.628Z,13.90
2018-09-09T15:50:35.581Z,13.53
2018-09-09T15:53:04.524Z,17.20
2018-09-09T15:55:33.483Z,14.84
2018-09-09T15:58:02.441Z,14.20
2018-09-09T16:00:31.539Z,17.03
2018-09-09T16:03:00.285Z,25.77
2018-09-09T16:05:29.180Z,16.47
2018-09-09T16:07:58.089Z,14.20
2018-09-09T16:10:27.371Z,14.47
2018-09-09T16:12:56.919Z,18.43
2018-09-09T16:15:26.194Z,20.30
2018-09-09T16:17:55.517Z,14.90
2018-09-09T16:20:24.612Z,19.03
2018-09-09T16:22:53.439Z,19.17
2018-09-09T16:25:22.702Z,21.53
2018-09-09T16:27:51.581Z,19.13
2018-09-09T16:30:20.508Z,22.70
2018-09-09T16:32:49.430Z,15.20
2018-09-09T16:35:18.681Z,21.40
2018-09-09T16:37:47.579Z,16.90
2018-09-09T16:40:16.430Z,22.27
2018-09-09T16:42:45.524Z,19.93
2018-09-09T16:45:14.561Z,20.00
2018-09-09T16:47:43.479Z,23.60
2018-09-09T16:50:12.421Z,60.87
2018-09-09T16:52:41.504Z,20.17
2018-09-09T16:55:10.351Z,18.97
2018-09-09T16:57:39.362Z,17.93
2018-09-09T17:00:08.406Z,20.07
2018-09-09T17:02:37.778Z,16.10
2018-09-09T17:05:06.948Z,22.00
2018-09-09T17:07:36.192Z,17.67
2018-09-09T17:10:05.537Z,16.90
2018-09-09T17:12:34.452Z,20.07
2018-09-09T17:15:03.324Z,16.17
2018-09-09T17:17:32.304Z,17.90
2018-09-09T17:20:01.250Z,18.30
2018-09-09T17:22:30.746Z,19.27
2018-09-09T17:24:59.981Z,28.27
2018-09-09T17:27:29.000Z,18.97
2018-09-09T17:29:57.993Z,17.53
2018-09-09T17:32:26.812Z,18.33
2018-09-09T17:34:55.769Z,17.73
2018-09-09T17:37:24.918Z,17.20
2018-09-09T17:39:53.846Z,15.10
2018-09-09T17:42:23.140Z,15.37
2018-09-09T17:44:52.420Z,18.00
2018-09-09T17:47:21.345Z,19.67
2018-09-09T17:49:50.308Z,16.80
2018-09-09T17:52:19.380Z,20.17
2018-09-09T17:54:48.416Z,17.90
2018-09-09T17:57:17.445Z,17.00
2018-09-09T17:59:46.305Z,17.50
2018-09-09T18:02:15.199Z,17.43
2018-09-09T18:04:44.084Z,17.43
2018-09-09T18:07:12.980Z,16.73
2018-09-09T18:09:42.928Z,17.37
2018-09-09T18:12:11.787Z,15.37
2018-09-09T18:14:40.688Z,16.23
2018-09-09T18:17:09.920Z,17.27
2018-09-09T18:19:38.994Z,16.60
2018-09-09T18:22:07.949Z,17.83
2018-09-09T18:24:36.781Z,16.13
2018-09-09T18:27:05.729Z,18.47
2018-09-09T18:29:35.082Z,17.40
2018-09-09T18:32:04.031Z,17.10
2018-09-09T18:34:32.847Z,19.17
2018-09-09T18:37:01.815Z,24.60
2018-09-09T18:39:30.764Z,19.20
2018-09-09T18:41:59.615Z,20.47
2018-09-09T18:44:28.505Z,18.03
2018-09-09T18:46:57.524Z,16.13
2018-09-09T18:49:26.801Z,13.00
2018-09-09T18:51:55.825Z,12.93
2018-09-09T18:54:24.793Z,16.17
2018-09-09T18:56:53.708Z,13.83
2018-09-09T18:59:23.091Z,13.10
2018-09-09T19:01:52.313Z,13.33
2018-09-09T19:04:21.264Z,13.57
2018-09-09T19:06:50.337Z,13.40
2018-09-09T19:09:19.389Z,12.93
2018-09-09T19:11:48.320Z,13.73
2018-09-09T19:14:17.241Z,20.57
2018-09-09T19:16:46.160Z,12.87
2018-09-09T19:19:15.099Z,13.57
2018-09-09T19:21:44.093Z,15.10
2018-09-09T19:24:13.025Z,15.30
2018-09-09T19:26:42.048Z,13.83
2018-09-09T19:29:10.929Z,22.37
2018-09-09T19:31:40.009Z,15.07
2018-09-09T19:34:09.139Z,16.60
2018-09-09T19:36:37.999Z,13.30
2018-09-09T19:39:09.361Z,15.47
2018-09-09T19:41:38.216Z,19.67
2018-09-09T19:44:07.450Z,16.67
2018-09-09T19:46:36.513Z,16.57
2018-09-09T19:49:05.967Z,13.17
2018-09-09T19:51:35.076Z,14.20
2018-09-09T19:54:03.984Z,15.23
2018-09-09T19:56:32.796Z,13.80
2018-09-09T19:59:01.760Z,13.13
2018-09-09T20:01:30.801Z,14.70
2018-09-09T20:03:59.640Z,15.53
2018-09-09T20:06:28.552Z,14.57
2018-09-09T20:08:57.524Z,15.10
2018-09-09T20:11:26.572Z,15.63
2018-09-09T20:13:55.537Z,17.87
2018-09-09T20:16:24.460Z,13.83
2018-09-09T20:18:53.371Z,15.07
2018-09-09T20:21:22.548Z,16.03
2018-09-09T20:23:51.428Z,14.30
2018-09-09T20:26:20.463Z,16.07
2018-09-09T20:28:49.873Z,14.63
2018-09-09T20:31:18.929Z,13.77
2018-09-09T20:33:48.016Z,15.90
2018-09-09T20:36:16.836Z,15.10
2018-09-09T20:38:45.680Z,15.37
2018-09-09T20:41:14.805Z,13.97
2018-09-09T20:43:43.876Z,13.73
2018-09-09T20:46:12.925Z,13.97
2018-09-09T20:48:41.853Z,12.40
2018-09-09T20:51:10.731Z,12.53
2018-09-09T20:53:39.664Z,11.27
2018-09-09T20:56:08.597Z,12.57
2018-09-09T20:58:37.469Z,14.10
2018-09-09T21:01:06.821Z,12.30
2018-09-09T21:03:35.962Z,12.43
2018-09-09T21:06:04.880Z,12.87
2018-09-09T21:08:33.988Z,13.93
2018-09-09T21:11:02.961Z,12.23
2018-09-09T21:13:31.805Z,12.87
2018-09-09T21:16:00.772Z,14.77
2018-09-09T21:18:29.732Z,15.80
2018-09-09T21:20:58.664Z,12.57
2018-09-09T21:23:27.693Z,12.90
2018-09-09T21:25:56.584Z,16.40
2018-09-09T21:28:25.567Z,13.00
2018-09-09T21:30:54.538Z,10.10
2018-09-09T21:33:23.632Z,12.30
2018-09-09T21:35:52.879Z,12.40
2018-09-09T21:38:22.012Z,9.77
2018-09-09T21:40:51.123Z,12.43
2018-09-09T21:43:20.413Z,12.33
2018-09-09T21:45:49.591Z,11.60
2018-09-09T21:48:19.059Z,14.10
2018-09-09T21:50:48.840Z,15.67
2018-09-09T21:53:18.032Z,15.20
2018-09-09T21:55:47.376Z,12.43
2018-09-09T21:58:16.308Z,12.40
2018-09-09T22:00:50.848Z,13.33
2018-09-09T22:03:19.674Z,16.50
2018-09-09T22:05:48.713Z,15.67
2018-09-09T22:08:17.962Z,13.77
2018-09-09T22:10:47.104Z,11.17
2018-09-09T22:13:16.418Z,10.67
2018-09-09T22:15:46.252Z,13.53
2018-09-09T22:18:15.343Z,10.23
2018-09-09T22:20:44.668Z,10.63
2018-09-09T22:23:13.519Z,12.80
2018-09-09T22:25:42.360Z,11.07
2018-09-09T22:28:11.624Z,10.90
2018-09-09T22:30:40.996Z,10.60
2018-09-09T22:33:10.141Z,10.23
2018-09-09T22:35:39.051Z,9.83
2018-09-09T22:38:07.891Z,11.60
2018-09-09T22:40:36.752Z,12.90
2018-09-09T22:43:05.718Z,11.47
2018-09-09T22:45:34.689Z,14.30
2018-09-09T22:48:03.664Z,15.53
2018-09-09T22:50:32.948Z,11.57
2018-09-09T22:53:01.901Z,12.60
2018-09-09T22:55:30.973Z,10.60
2018-09-09T22:57:59.817Z,11.40
2018-09-09T23:00:28.789Z,11.03
2018-09-09T23:02:57.832Z,15.97
2018-09-09T23:05:27.065Z,12.47
2018-09-09T23:07:56.169Z,10.47
2018-09-09T23:10:25.347Z,10.67
2018-09-09T23:12:54.460Z,14.93
2018-09-09T23:15:28.156Z,10.93
2018-09-09T23:17:57.004Z,13.07
2018-09-09T23:20:25.852Z,11.77
2018-09-09T23:22:54.708Z,10.33
2018-09-09T23:25:24.021Z,10.53
2018-09-09T23:27:53.653Z,12.50
2018-09-09T23:30:22.503Z,12.47
2018-09-09T23:32:51.383Z,11.93
2018-09-09T23:35:20.244Z,11.63
2018-09-09T23:37:49.339Z,11.10
2018-09-09T23:40:18.574Z,13.57
2018-09-09T23:42:48.159Z,12.53
2018-09-09T23:45:17.600Z,13.17
2018-09-09T23:47:46.478Z,12.17
2018-09-09T23:50:15.363Z,10.67
2018-09-09T23:52:44.573Z,9.60
2018-09-09T23:55:13.791Z,11.27
2018-09-09T23:57:43.124Z,12.57
